createdAt,value
2023-03-07T00:01:30.651Z,85.47
2023-03-07T00:05:47.856Z,52.30
2023-03-07T00:10:05.396Z,64.10
2023-03-07T00:14:22.469Z,62.67
2023-03-07T00:18:39.657Z,54.60
2023-03-07T00:22:56.753Z,61.83
2023-03-07T00:27:14.192Z,51.92
2023-03-07T00:31:31.305Z,63.43
2023-03-07T00:36:16.693Z,57.78
2023-03-07T00:40:33.749Z,71.55
2023-03-07T00:44:50.798Z,59.70
2023-03-07T00:49:08.411Z,54.42
2023-03-07T00:53:25.510Z,61.08
2023-03-07T00:57:42.678Z,56.55
2023-03-07T01:01:59.742Z,80.93
2023-03-07T01:06:19.474Z,60.78
2023-03-07T01:10:36.660Z,63.80
2023-03-07T01:14:53.801Z,65.57
2023-03-07T01:19:14.370Z,57.85
2023-03-07T01:23:31.422Z,63.25
2023-03-07T01:27:48.567Z,60.33
2023-03-07T01:32:05.949Z,52.70
2023-03-07T01:36:29.991Z,51.80
2023-03-07T01:40:47.253Z,55.17
2023-03-07T01:45:13.235Z,51.03
2023-03-07T01:49:40.744Z,57.53
2023-03-07T01:53:59.073Z,57.70
2023-03-07T01:58:16.409Z,61.50
2023-03-07T02:02:35.255Z,54.97
2023-03-07T02:06:52.349Z,60.63
2023-03-07T02:11:10.708Z,58.33
2023-03-07T02:15:27.975Z,49.35
2023-03-07T02:20:01.289Z,50.70
2023-03-07T02:24:37.736Z,54.40
2023-03-07T02:28:55.388Z,46.65
2023-03-07T02:33:12.470Z,40.08
2023-03-07T02:37:33.105Z,45.17
2023-03-07T02:41:53.273Z,46.75
2023-03-07T02:46:10.422Z,35.70
2023-03-07T02:50:27.512Z,39.88
2023-03-07T02:54:44.640Z,34.97
2023-03-07T02:59:01.797Z,36.80
2023-03-07T03:03:19.569Z,34.10
2023-03-07T03:07:36.695Z,38.00
2023-03-07T03:11:53.912Z,32.20
2023-03-07T03:16:11.090Z,40.10
2023-03-07T03:20:28.237Z,34.33
2023-03-07T03:24:45.383Z,33.55
2023-03-07T03:29:03.467Z,36.88
2023-03-07T03:33:20.580Z,34.40
2023-03-07T03:37:37.694Z,31.33
2023-03-07T03:41:54.762Z,32.25
2023-03-07T03:46:11.921Z,33.10
2023-03-07T03:50:29.080Z,36.50
2023-03-07T03:54:46.166Z,33.75
2023-03-07T03:59:03.603Z,36.35
2023-03-07T04:03:20.749Z,32.17
2023-03-07T04:07:37.947Z,33.63
2023-03-07T04:11:55.029Z,33.97
2023-03-07T04:16:12.537Z,32.13
2023-03-07T04:20:29.659Z,31.27
2023-03-07T04:24:46.787Z,36.33
2023-03-07T04:29:04.443Z,30.15
2023-03-07T04:33:21.964Z,30.88
2023-03-07T04:37:39.059Z,33.80
2023-03-07T04:41:56.128Z,33.08
2023-03-07T04:46:15.839Z,36.08
2023-03-07T04:50:33.131Z,34.72
2023-03-07T04:54:50.334Z,39.97
2023-03-07T04:59:07.546Z,37.42
2023-03-07T05:03:25.126Z,40.75
2023-03-07T05:07:43.022Z,30.55
2023-03-07T05:12:00.228Z,32.28
2023-03-07T05:16:18.380Z,31.17
2023-03-07T05:24:52.478Z,33.97
2023-03-07T05:29:09.915Z,31.15
2023-03-07T05:33:27.049Z,30.17
2023-03-07T05:37:44.158Z,29.30
2023-03-07T05:42:01.290Z,29.58
2023-03-07T05:46:18.423Z,31.52
2023-03-07T05:50:38.943Z,31.65
2023-03-07T05:54:56.108Z,29.33
2023-03-07T05:59:15.504Z,28.95
2023-03-07T06:03:32.725Z,29.45
2023-03-07T06:07:50.428Z,25.40
2023-03-07T06:12:10.118Z,25.20
2023-03-07T06:16:27.340Z,25.95
2023-03-07T06:20:44.991Z,29.43
2023-03-07T06:25:02.071Z,27.60
2023-03-07T06:29:19.425Z,24.67
2023-03-07T06:33:36.640Z,26.33
2023-03-07T06:37:53.748Z,27.58
2023-03-07T06:42:10.927Z,25.63
2023-03-07T06:46:28.037Z,27.27
2023-03-07T06:50:45.907Z,27.95
2023-03-07T06:55:03.531Z,27.77
2023-03-07T06:59:20.735Z,26.25
2023-03-07T07:03:37.794Z,27.83
2023-03-07T07:07:54.861Z,26.50
2023-03-07T07:12:12.223Z,27.83
2023-03-07T07:16:29.524Z,26.27
2023-03-07T07:20:54.161Z,23.48
2023-03-07T07:25:11.662Z,20.75
2023-03-07T07:29:28.755Z,19.80
2023-03-07T07:33:46.484Z,24.75
2023-03-07T07:38:03.826Z,18.08
2023-03-07T07:42:21.022Z,18.88
2023-03-07T07:46:38.187Z,17.27
2023-03-07T07:50:55.311Z,16.17
2023-03-07T07:55:14.385Z,18.60
2023-03-07T07:59:34.120Z,17.77
2023-03-07T08:03:51.923Z,15.13
2023-03-07T08:08:09.168Z,14.38
2023-03-07T08:12:27.914Z,15.82
2023-03-07T08:16:45.214Z,15.57
2023-03-07T08:21:02.302Z,16.42
2023-03-07T08:25:23.758Z,16.05
2023-03-07T08:29:40.836Z,14.55
2023-03-07T08:33:58.020Z,12.93
2023-03-07T08:38:15.107Z,12.98
2023-03-07T08:42:32.230Z,13.50
2023-03-07T08:46:49.391Z,14.60
2023-03-07T08:51:12.962Z,14.30
2023-03-07T08:55:30.116Z,14.93
2023-03-07T08:59:47.199Z,15.05
2023-03-07T09:04:05.029Z,14.68
2023-03-07T09:08:22.137Z,18.90
2023-03-07T09:12:39.296Z,16.55
2023-03-07T09:16:56.538Z,16.13
2023-03-07T09:21:13.660Z,16.67
2023-03-07T09:25:30.843Z,15.68
2023-03-07T09:29:47.952Z,13.88
2023-03-07T09:34:05.454Z,14.93
2023-03-07T09:38:22.534Z,14.10
2023-03-07T09:43:08.650Z,16.70
2023-03-07T09:47:40.847Z,13.65
2023-03-07T09:52:00.442Z,27.83
2023-03-07T09:56:38.244Z,18.00
2023-03-07T10:01:01.435Z,13.43
2023-03-07T10:05:52.300Z,13.40
2023-03-07T10:10:25.326Z,13.55
2023-03-07T10:15:03.727Z,16.52
2023-03-07T10:19:49.059Z,15.07
2023-03-07T10:24:27.700Z,15.43
2023-03-07T10:28:46.216Z,15.77
2023-03-07T10:37:34.456Z,15.30
2023-03-07T10:41:51.915Z,15.77
2023-03-07T10:46:27.767Z,13.27
2023-03-07T10:51:15.700Z,16.10
2023-03-07T10:55:36.485Z,13.27
2023-03-07T10:59:53.721Z,12.63
2023-03-07T11:04:22.709Z,14.18
2023-03-07T11:13:31.592Z,14.15
2023-03-07T11:17:49.436Z,13.77
2023-03-07T11:22:33.512Z,13.23
2023-03-07T11:26:54.546Z,14.85
2023-03-07T11:31:29.100Z,13.15
2023-03-07T11:36:03.731Z,17.23
2023-03-07T11:40:32.136Z,15.38
2023-03-07T11:44:56.993Z,12.60
2023-03-07T11:49:43.005Z,14.48
2023-03-07T11:54:21.521Z,13.70
2023-03-07T11:59:03.738Z,13.37
2023-03-07T12:03:41.292Z,13.75
2023-03-07T12:08:27.226Z,16.67
2023-03-07T12:12:55.646Z,16.88
2023-03-07T12:17:34.117Z,13.00
2023-03-07T12:22:13.065Z,10.52
2023-03-07T12:26:52.786Z,14.15
2023-03-07T12:31:28.299Z,12.10
2023-03-07T12:35:51.353Z,13.73
2023-03-07T12:40:29.709Z,12.38
2023-03-07T12:45:03.573Z,12.45
2023-03-07T12:49:40.952Z,11.50
2023-03-07T12:54:33.915Z,11.50
2023-03-07T12:59:04.125Z,12.25
2023-03-07T13:03:39.030Z,10.63
2023-03-07T13:07:56.979Z,12.23
2023-03-07T13:12:16.126Z,9.32
2023-03-07T13:16:47.048Z,13.18
2023-03-07T13:21:32.229Z,12.50
2023-03-07T13:25:56.840Z,11.60
2023-03-07T13:30:18.404Z,11.93
2023-03-07T13:34:46.770Z,13.38
2023-03-07T13:39:24.494Z,12.20
2023-03-07T13:43:44.303Z,10.32
2023-03-07T13:48:01.523Z,13.10
2023-03-07T13:52:18.779Z,10.60
2023-03-07T13:56:41.259Z,11.02
2023-03-07T14:01:02.922Z,11.02
2023-03-07T14:05:20.404Z,12.68
2023-03-07T14:09:48.051Z,10.18
2023-03-07T14:14:40.061Z,17.77
2023-03-07T14:19:00.056Z,11.95
2023-03-07T14:24:01.149Z,10.18
2023-03-07T14:28:26.751Z,10.75
2023-03-07T14:32:44.330Z,12.40
2023-03-07T14:37:12.007Z,10.10
2023-03-07T14:41:39.346Z,10.50
2023-03-07T14:46:16.660Z,9.15
2023-03-07T14:50:34.561Z,10.15
2023-03-07T14:54:52.390Z,9.10
2023-03-07T15:03:47.615Z,11.05
2023-03-07T15:08:17.832Z,10.18
2023-03-07T15:12:34.990Z,12.77
2023-03-07T15:16:57.406Z,10.23
2023-03-07T15:21:21.850Z,8.95
2023-03-07T15:25:39.329Z,10.95
2023-03-07T15:29:57.544Z,9.70
2023-03-07T15:34:44.016Z,12.02
2023-03-07T15:39:28.873Z,10.13
2023-03-07T15:43:45.991Z,10.23
2023-03-07T15:48:27.138Z,10.50
2023-03-07T15:52:55.968Z,8.82
2023-03-07T15:57:23.271Z,8.70
2023-03-07T16:01:40.581Z,10.68
2023-03-07T16:06:00.256Z,8.23
2023-03-07T16:10:17.893Z,8.27
2023-03-07T16:14:35.034Z,9.73
2023-03-07T16:18:57.293Z,10.30
2023-03-07T16:23:14.399Z,11.50
2023-03-07T16:27:31.665Z,9.77
2023-03-07T16:31:49.043Z,19.45
2023-03-07T16:36:06.549Z,12.18
2023-03-07T16:40:25.919Z,26.65
2023-03-07T16:44:43.072Z,9.35
2023-03-07T16:49:00.238Z,19.23
2023-03-07T16:53:17.457Z,13.27
2023-03-07T16:57:34.724Z,11.57
2023-03-07T17:01:54.215Z,9.50
2023-03-07T17:06:16.541Z,12.13
2023-03-07T17:10:34.303Z,13.02
2023-03-07T17:14:51.875Z,9.13
2023-03-07T17:19:28.057Z,13.38
2023-03-07T17:23:45.744Z,12.20
2023-03-07T17:28:13.325Z,14.27
2023-03-07T17:32:30.464Z,12.68
2023-03-07T17:36:47.617Z,10.90
2023-03-07T17:41:04.939Z,11.35
2023-03-07T17:45:22.309Z,13.30
2023-03-07T17:49:39.529Z,25.40
2023-03-07T17:53:57.317Z,12.10
2023-03-07T17:58:14.454Z,15.33
2023-03-07T18:02:31.591Z,12.25
2023-03-07T18:06:48.700Z,14.25
2023-03-07T18:11:11.472Z,13.82
2023-03-07T18:15:28.621Z,14.07
2023-03-07T18:19:45.739Z,14.27
2023-03-07T18:24:03.339Z,13.98
2023-03-07T18:28:20.463Z,12.33
2023-03-07T18:32:37.713Z,11.20
2023-03-07T18:36:54.862Z,14.05
2023-03-07T18:41:15.904Z,14.98
2023-03-07T18:45:33.039Z,13.13
2023-03-07T18:49:51.297Z,13.63
2023-03-07T18:54:09.493Z,139.40
2023-03-07T18:58:26.685Z,134.80
2023-03-07T19:02:43.860Z,16.05
2023-03-07T19:07:00.961Z,14.43
2023-03-07T19:11:18.740Z,16.83
2023-03-07T19:15:36.174Z,15.60
2023-03-07T19:19:59.004Z,15.48
2023-03-07T19:24:16.221Z,15.15
2023-03-07T19:28:36.656Z,15.18
2023-03-07T19:32:53.906Z,18.75
2023-03-07T19:37:11.124Z,15.75
2023-03-07T19:41:30.284Z,19.38
2023-03-07T19:45:47.608Z,16.35
2023-03-07T19:50:05.310Z,20.67
2023-03-07T19:54:22.679Z,19.93
2023-03-07T19:58:40.140Z,18.38
2023-03-07T20:02:57.381Z,18.73
2023-03-07T20:11:34.836Z,15.27
2023-03-07T20:15:52.540Z,14.23
2023-03-07T20:20:10.826Z,16.08
2023-03-07T20:24:29.873Z,16.20
2023-03-07T20:28:47.221Z,16.65
2023-03-07T20:33:04.441Z,18.25
2023-03-07T20:37:21.768Z,19.80
2023-03-07T20:41:39.090Z,18.75
2023-03-07T20:45:56.431Z,20.63
2023-03-07T20:50:13.880Z,18.97
2023-03-07T20:54:31.819Z,19.50
2023-03-07T20:58:49.554Z,20.85
2023-03-07T21:03:09.845Z,21.27
2023-03-07T21:07:27.037Z,21.23
2023-03-07T21:11:49.182Z,22.75
2023-03-07T21:16:15.050Z,29.88
2023-03-07T21:20:32.177Z,33.10
2023-03-07T21:24:49.374Z,31.48
2023-03-07T21:29:09.049Z,30.48
2023-03-07T21:33:26.515Z,35.67
2023-03-07T21:37:43.630Z,38.77
2023-03-07T21:42:00.718Z,37.70
2023-03-07T21:46:17.908Z,38.25
2023-03-07T21:50:35.390Z,36.92
2023-03-07T21:54:52.508Z,31.47
2023-03-07T21:59:09.904Z,29.58
2023-03-07T22:03:29.001Z,23.47
2023-03-07T22:07:49.336Z,20.83
2023-03-07T22:12:07.174Z,15.82
2023-03-07T22:16:24.852Z,13.85
2023-03-07T22:20:42.507Z,11.50
2023-03-07T22:24:59.728Z,12.70
2023-03-07T22:29:16.881Z,10.85
2023-03-07T22:33:33.995Z,12.38
2023-03-07T22:37:51.088Z,15.15
2023-03-07T22:42:08.212Z,13.23
2023-03-07T22:46:25.555Z,14.13
2023-03-07T22:50:42.882Z,21.93
2023-03-07T22:55:00.115Z,16.87
2023-03-07T22:59:17.182Z,21.88
2023-03-07T23:03:34.312Z,21.35
2023-03-07T23:07:51.607Z,17.08
2023-03-07T23:12:08.854Z,20.67
2023-03-07T23:16:29.411Z,11.82
2023-03-07T23:20:46.758Z,14.60
2023-03-07T23:25:05.059Z,16.63
2023-03-07T23:33:39.437Z,17.10
2023-03-07T23:37:56.576Z,23.40
2023-03-07T23:42:13.715Z,18.30
2023-03-07T23:46:31.777Z,21.45
2023-03-07T23:50:49.249Z,18.67
2023-03-07T23:55:09.039Z,16.73
2023-03-07T23:59:26.139Z,17.73
